sensor_id;sensor_type;location;lat;lon;timestamp;P1;durP1;ratioP1;P2;durP2;ratioP2
11338;SDS011;5724;42.684;23.252;2023-01-04T00:01:20;10.57;;;8.90;;
11338;SDS011;5724;42.684;23.252;2023-01-04T00:03:46;11.83;;;9.07;;
11338;SDS011;5724;42.684;23.252;2023-01-04T00:06:12;9.43;;;8.63;;
11338;SDS011;5724;42.684;23.252;2023-01-04T00:08:39;9.53;;;8.63;;
11338;SDS011;5724;42.684;23.252;2023-01-04T00:11:23;8.73;;;7.93;;
11338;SDS011;5724;42.684;23.252;2023-01-04T00:13:49;10.03;;;9.03;;
11338;SDS011;5724;42.684;23.252;2023-01-04T00:16:18;9.00;;;8.00;;
11338;SDS011;5724;42.684;23.252;2023-01-04T00:18:45;9.70;;;7.93;;
11338;SDS011;5724;42.684;23.252;2023-01-04T00:23:38;8.77;;;8.07;;
11338;SDS011;5724;42.684;23.252;2023-01-04T00:26:06;8.17;;;7.37;;
11338;SDS011;5724;42.684;23.252;2023-01-04T00:28:36;9.17;;;8.40;;
11338;SDS011;5724;42.684;23.252;2023-01-04T00:31:03;7.50;;;6.83;;
11338;SDS011;5724;42.684;23.252;2023-01-04T00:33:29;7.90;;;7.13;;
11338;SDS011;5724;42.684;23.252;2023-01-04T00:35:55;8.27;;;7.47;;
11338;SDS011;5724;42.684;23.252;2023-01-04T00:38:20;8.90;;;8.10;;
11338;SDS011;5724;42.684;23.252;2023-01-04T00:40:45;9.53;;;7.00;;
11338;SDS011;5724;42.684;23.252;2023-01-04T00:43:11;7.67;;;6.97;;
11338;SDS011;5724;42.684;23.252;2023-01-04T00:45:36;10.57;;;8.07;;
11338;SDS011;5724;42.684;23.252;2023-01-04T00:48:02;8.93;;;8.13;;
11338;SDS011;5724;42.684;23.252;2023-01-04T00:50:27;9.67;;;8.30;;
11338;SDS011;5724;42.684;23.252;2023-01-04T00:52:53;7.83;;;7.13;;
11338;SDS011;5724;42.684;23.252;2023-01-04T00:55:18;13.17;;;7.73;;
11338;SDS011;5724;42.684;23.252;2023-01-04T00:57:44;9.00;;;8.20;;
11338;SDS011;5724;42.684;23.252;2023-01-04T01:00:09;10.13;;;8.65;;
11338;SDS011;5724;42.684;23.252;2023-01-04T01:02:35;8.00;;;7.30;;
11338;SDS011;5724;42.684;23.252;2023-01-04T01:05:01;9.63;;;8.80;;
11338;SDS011;5724;42.684;23.252;2023-01-04T01:07:26;8.38;;;7.68;;
11338;SDS011;5724;42.684;23.252;2023-01-04T01:09:52;7.80;;;7.07;;
11338;SDS011;5724;42.684;23.252;2023-01-04T01:12:17;8.40;;;7.30;;
11338;SDS011;5724;42.684;23.252;2023-01-04T01:14:42;8.40;;;7.70;;
11338;SDS011;5724;42.684;23.252;2023-01-04T01:17:08;10.37;;;8.07;;
11338;SDS011;5724;42.684;23.252;2023-01-04T01:19:33;8.37;;;7.57;;
11338;SDS011;5724;42.684;23.252;2023-01-04T01:21:59;9.43;;;8.53;;
11338;SDS011;5724;42.684;23.252;2023-01-04T01:24:25;9.60;;;8.53;;
11338;SDS011;5724;42.684;23.252;2023-01-04T01:26:51;9.47;;;8.67;;
11338;SDS011;5724;42.684;23.252;2023-01-04T01:29:16;10.23;;;8.40;;
11338;SDS011;5724;42.684;23.252;2023-01-04T01:31:42;10.80;;;8.73;;
11338;SDS011;5724;42.684;23.252;2023-01-04T01:34:07;9.53;;;8.57;;
11338;SDS011;5724;42.684;23.252;2023-01-04T01:36:33;11.33;;;10.20;;
11338;SDS011;5724;42.684;23.252;2023-01-04T01:38:59;10.30;;;9.23;;
11338;SDS011;5724;42.684;23.252;2023-01-04T01:41:28;9.10;;;8.20;;
11338;SDS011;5724;42.684;23.252;2023-01-04T01:46:50;8.63;;;7.43;;
11338;SDS011;5724;42.684;23.252;2023-01-04T01:49:24;10.23;;;8.83;;
11338;SDS011;5724;42.684;23.252;2023-01-04T01:51:58;12.13;;;10.13;;
11338;SDS011;5724;42.684;23.252;2023-01-04T01:54:28;10.53;;;9.43;;
11338;SDS011;5724;42.684;23.252;2023-01-04T01:57:00;11.03;;;9.80;;
11338;SDS011;5724;42.684;23.252;2023-01-04T01:59:28;9.03;;;8.13;;
11338;SDS011;5724;42.684;23.252;2023-01-04T02:01:56;9.90;;;9.00;;
11338;SDS011;5724;42.684;23.252;2023-01-04T02:04:22;9.03;;;8.20;;
11338;SDS011;5724;42.684;23.252;2023-01-04T02:06:49;12.63;;;9.50;;
11338;SDS011;5724;42.684;23.252;2023-01-04T02:09:17;10.00;;;9.00;;
11338;SDS011;5724;42.684;23.252;2023-01-04T02:11:44;10.80;;;8.87;;
11338;SDS011;5724;42.684;23.252;2023-01-04T02:14:10;13.10;;;10.90;;
11338;SDS011;5724;42.684;23.252;2023-01-04T02:17:09;10.60;;;9.50;;
11338;SDS011;5724;42.684;23.252;2023-01-04T02:36:47;9.70;;;8.53;;
11338;SDS011;5724;42.684;23.252;2023-01-04T02:45:10;10.80;;;9.70;;
11338;SDS011;5724;42.684;23.252;2023-01-04T02:47:38;10.13;;;8.70;;
11338;SDS011;5724;42.684;23.252;2023-01-04T02:50:29;14.00;;;10.23;;
11338;SDS011;5724;42.684;23.252;2023-01-04T02:53:07;10.27;;;8.60;;
11338;SDS011;5724;42.684;23.252;2023-01-04T02:58:26;10.27;;;7.93;;
11338;SDS011;5724;42.684;23.252;2023-01-04T03:10:40;11.43;;;9.70;;
11338;SDS011;5724;42.684;23.252;2023-01-04T03:13:51;11.23;;;7.93;;
11338;SDS011;5724;42.684;23.252;2023-01-04T03:16:20;14.77;;;10.37;;
11338;SDS011;5724;42.684;23.252;2023-01-04T03:18:51;13.63;;;9.17;;
11338;SDS011;5724;42.684;23.252;2023-01-04T03:21:21;10.83;;;9.77;;
11338;SDS011;5724;42.684;23.252;2023-01-04T03:23:49;11.23;;;10.10;;
11338;SDS011;5724;42.684;23.252;2023-01-04T03:26:41;9.53;;;8.63;;
11338;SDS011;5724;42.684;23.252;2023-01-04T03:29:51;11.93;;;9.97;;
11338;SDS011;5724;42.684;23.252;2023-01-04T03:32:52;15.73;;;10.73;;
11338;SDS011;5724;42.684;23.252;2023-01-04T03:41:40;11.53;;;9.60;;
11338;SDS011;5724;42.684;23.252;2023-01-04T03:48:23;9.67;;;8.47;;
11338;SDS011;5724;42.684;23.252;2023-01-04T03:53:25;16.33;;;10.30;;
11338;SDS011;5724;42.684;23.252;2023-01-04T03:55:52;15.20;;;10.87;;
11338;SDS011;5724;42.684;23.252;2023-01-04T03:58:19;11.60;;;10.03;;
11338;SDS011;5724;42.684;23.252;2023-01-04T04:00:46;16.10;;;12.83;;
11338;SDS011;5724;42.684;23.252;2023-01-04T04:03:12;12.63;;;10.10;;
11338;SDS011;5724;42.684;23.252;2023-01-04T04:05:38;16.17;;;11.80;;
11338;SDS011;5724;42.684;23.252;2023-01-04T04:08:23;12.30;;;10.87;;
11338;SDS011;5724;42.684;23.252;2023-01-04T04:10:58;12.40;;;9.97;;
11338;SDS011;5724;42.684;23.252;2023-01-04T04:13:46;14.03;;;11.57;;
11338;SDS011;5724;42.684;23.252;2023-01-04T04:16:12;13.67;;;11.73;;
11338;SDS011;5724;42.684;23.252;2023-01-04T04:18:38;11.47;;;10.03;;
11338;SDS011;5724;42.684;23.252;2023-01-04T04:21:03;13.93;;;10.80;;
11338;SDS011;5724;42.684;23.252;2023-01-04T04:23:29;11.17;;;9.37;;
11338;SDS011;5724;42.684;23.252;2023-01-04T04:25:54;11.00;;;8.50;;
11338;SDS011;5724;42.684;23.252;2023-01-04T04:28:20;9.63;;;8.60;;
11338;SDS011;5724;42.684;23.252;2023-01-04T04:30:48;13.33;;;10.47;;
11338;SDS011;5724;42.684;23.252;2023-01-04T04:33:13;10.27;;;7.90;;
11338;SDS011;5724;42.684;23.252;2023-01-04T04:35:39;10.90;;;8.67;;
11338;SDS011;5724;42.684;23.252;2023-01-04T04:38:05;14.10;;;10.07;;
11338;SDS011;5724;42.684;23.252;2023-01-04T04:40:30;12.47;;;9.30;;
11338;SDS011;5724;42.684;23.252;2023-01-04T04:43:14;18.37;;;11.67;;
11338;SDS011;5724;42.684;23.252;2023-01-04T04:45:40;11.00;;;9.20;;
11338;SDS011;5724;42.684;23.252;2023-01-04T04:48:05;13.50;;;9.90;;
11338;SDS011;5724;42.684;23.252;2023-01-04T04:50:30;11.40;;;10.20;;
11338;SDS011;5724;42.684;23.252;2023-01-04T04:52:56;12.73;;;9.07;;
11338;SDS011;5724;42.684;23.252;2023-01-04T04:55:22;14.03;;;10.80;;
11338;SDS011;5724;42.684;23.252;2023-01-04T04:57:47;8.90;;;8.00;;
11338;SDS011;5724;42.684;23.252;2023-01-04T05:00:13;14.03;;;9.13;;
11338;SDS011;5724;42.684;23.252;2023-01-04T05:02:39;12.63;;;11.30;;
11338;SDS011;5724;42.684;23.252;2023-01-04T05:05:04;12.97;;;10.17;;
11338;SDS011;5724;42.684;23.252;2023-01-04T05:07:30;15.43;;;11.20;;
11338;SDS011;5724;42.684;23.252;2023-01-04T05:09:55;14.40;;;12.87;;
11338;SDS011;5724;42.684;23.252;2023-01-04T05:12:21;10.17;;;9.07;;
11338;SDS011;5724;42.684;23.252;2023-01-04T05:15:05;9.53;;;8.43;;
11338;SDS011;5724;42.684;23.252;2023-01-04T05:17:31;20.57;;;13.00;;
11338;SDS011;5724;42.684;23.252;2023-01-04T05:19:56;13.57;;;9.77;;
11338;SDS011;5724;42.684;23.252;2023-01-04T05:22:22;12.20;;;10.97;;
11338;SDS011;5724;42.684;23.252;2023-01-04T05:24:47;18.63;;;13.17;;
11338;SDS011;5724;42.684;23.252;2023-01-04T05:27:12;17.00;;;12.17;;
11338;SDS011;5724;42.684;23.252;2023-01-04T05:29:38;15.20;;;10.60;;
11338;SDS011;5724;42.684;23.252;2023-01-04T05:32:22;14.70;;;12.33;;
11338;SDS011;5724;42.684;23.252;2023-01-04T05:34:47;15.60;;;10.33;;
11338;SDS011;5724;42.684;23.252;2023-01-04T05:37:13;12.60;;;8.47;;
11338;SDS011;5724;42.684;23.252;2023-01-04T05:39:38;14.90;;;13.03;;
11338;SDS011;5724;42.684;23.252;2023-01-04T05:42:03;19.70;;;12.70;;
11338;SDS011;5724;42.684;23.252;2023-01-04T05:44:47;15.10;;;11.70;;
11338;SDS011;5724;42.684;23.252;2023-01-04T05:47:13;13.97;;;10.17;;
11338;SDS011;5724;42.684;23.252;2023-01-04T05:49:38;14.67;;;11.87;;
11338;SDS011;5724;42.684;23.252;2023-01-04T05:52:04;9.80;;;8.83;;
11338;SDS011;5724;42.684;23.252;2023-01-04T05:54:29;15.07;;;12.20;;
11338;SDS011;5724;42.684;23.252;2023-01-04T05:56:54;16.07;;;11.97;;
11338;SDS011;5724;42.684;23.252;2023-01-04T05:59:20;12.30;;;10.97;;
11338;SDS011;5724;42.684;23.252;2023-01-04T06:01:45;10.67;;;9.53;;
11338;SDS011;5724;42.684;23.252;2023-01-04T06:04:11;10.20;;;9.17;;
11338;SDS011;5724;42.684;23.252;2023-01-04T06:06:36;15.47;;;10.83;;
11338;SDS011;5724;42.684;23.252;2023-01-04T06:09:02;11.27;;;8.67;;
11338;SDS011;5724;42.684;23.252;2023-01-04T06:11:27;13.17;;;9.17;;
11338;SDS011;5724;42.684;23.252;2023-01-04T06:13:53;11.73;;;10.03;;
11338;SDS011;5724;42.684;23.252;2023-01-04T06:16:18;10.53;;;8.83;;
11338;SDS011;5724;42.684;23.252;2023-01-04T06:18:44;11.97;;;9.87;;
11338;SDS011;5724;42.684;23.252;2023-01-04T06:21:09;10.03;;;9.03;;
11338;SDS011;5724;42.684;23.252;2023-01-04T06:23:35;9.13;;;8.00;;
11338;SDS011;5724;42.684;23.252;2023-01-04T06:26:00;10.10;;;8.30;;
11338;SDS011;5724;42.684;23.252;2023-01-04T06:28:25;8.37;;;7.57;;
11338;SDS011;5724;42.684;23.252;2023-01-04T06:30:51;12.53;;;9.73;;
11338;SDS011;5724;42.684;23.252;2023-01-04T06:33:16;13.27;;;10.17;;
11338;SDS011;5724;42.684;23.252;2023-01-04T06:35:42;11.47;;;10.40;;
11338;SDS011;5724;42.684;23.252;2023-01-04T06:38:07;9.03;;;8.00;;
11338;SDS011;5724;42.684;23.252;2023-01-04T06:40:33;10.53;;;8.73;;
11338;SDS011;5724;42.684;23.252;2023-01-04T06:42:58;11.13;;;8.77;;
11338;SDS011;5724;42.684;23.252;2023-01-04T06:45:23;11.60;;;9.87;;
11338;SDS011;5724;42.684;23.252;2023-01-04T06:47:49;10.67;;;9.13;;
11338;SDS011;5724;42.684;23.252;2023-01-04T06:50:14;12.37;;;9.30;;
11338;SDS011;5724;42.684;23.252;2023-01-04T06:52:40;13.17;;;11.90;;
11338;SDS011;5724;42.684;23.252;2023-01-04T06:55:05;14.23;;;12.57;;
11338;SDS011;5724;42.684;23.252;2023-01-04T06:57:33;12.30;;;11.10;;
11338;SDS011;5724;42.684;23.252;2023-01-04T06:59:59;14.33;;;12.83;;
11338;SDS011;5724;42.684;23.252;2023-01-04T07:02:24;14.40;;;13.00;;
11338;SDS011;5724;42.684;23.252;2023-01-04T07:04:50;14.07;;;12.37;;
11338;SDS011;5724;42.684;23.252;2023-01-04T07:07:16;13.70;;;12.03;;
11338;SDS011;5724;42.684;23.252;2023-01-04T07:09:41;13.47;;;12.20;;
11338;SDS011;5724;42.684;23.252;2023-01-04T07:12:07;16.23;;;13.47;;
11338;SDS011;5724;42.684;23.252;2023-01-04T07:14:32;14.07;;;12.77;;
11338;SDS011;5724;42.684;23.252;2023-01-04T07:16:58;12.90;;;11.60;;
11338;SDS011;5724;42.684;23.252;2023-01-04T07:19:23;13.30;;;12.10;;
11338;SDS011;5724;42.684;23.252;2023-01-04T07:21:49;13.30;;;12.00;;
11338;SDS011;5724;42.684;23.252;2023-01-04T07:24:14;12.53;;;11.43;;
11338;SDS011;5724;42.684;23.252;2023-01-04T07:26:40;14.27;;;12.87;;
11338;SDS011;5724;42.684;23.252;2023-01-04T07:29:05;14.33;;;12.90;;
11338;SDS011;5724;42.684;23.252;2023-01-04T07:31:41;14.40;;;13.10;;
11338;SDS011;5724;42.684;23.252;2023-01-04T07:34:08;14.50;;;12.90;;
11338;SDS011;5724;42.684;23.252;2023-01-04T07:36:34;14.90;;;13.50;;
11338;SDS011;5724;42.684;23.252;2023-01-04T07:38:59;15.13;;;13.60;;
11338;SDS011;5724;42.684;23.252;2023-01-04T07:41:25;14.27;;;12.80;;
11338;SDS011;5724;42.684;23.252;2023-01-04T07:43:50;13.47;;;11.97;;
11338;SDS011;5724;42.684;23.252;2023-01-04T07:46:16;13.30;;;12.10;;
11338;SDS011;5724;42.684;23.252;2023-01-04T07:48:41;14.67;;;13.10;;
11338;SDS011;5724;42.684;23.252;2023-01-04T07:51:07;14.13;;;12.70;;
11338;SDS011;5724;42.684;23.252;2023-01-04T07:53:32;14.13;;;12.80;;
11338;SDS011;5724;42.684;23.252;2023-01-04T07:55:58;13.63;;;12.33;;
11338;SDS011;5724;42.684;23.252;2023-01-04T07:58:25;13.80;;;12.50;;
11338;SDS011;5724;42.684;23.252;2023-01-04T08:00:51;13.10;;;11.70;;
11338;SDS011;5724;42.684;23.252;2023-01-04T08:03:16;13.77;;;12.43;;
11338;SDS011;5724;42.684;23.252;2023-01-04T08:05:42;12.43;;;11.23;;
11338;SDS011;5724;42.684;23.252;2023-01-04T08:08:07;12.70;;;11.50;;
11338;SDS011;5724;42.684;23.252;2023-01-04T08:10:33;13.93;;;12.50;;
11338;SDS011;5724;42.684;23.252;2023-01-04T08:12:58;12.10;;;10.80;;
11338;SDS011;5724;42.684;23.252;2023-01-04T08:15:24;13.33;;;11.73;;
11338;SDS011;5724;42.684;23.252;2023-01-04T08:17:50;12.73;;;11.47;;
11338;SDS011;5724;42.684;23.252;2023-01-04T08:20:16;14.17;;;12.60;;
11338;SDS011;5724;42.684;23.252;2023-01-04T08:22:42;12.20;;;11.20;;
11338;SDS011;5724;42.684;23.252;2023-01-04T08:25:07;12.27;;;11.17;;
11338;SDS011;5724;42.684;23.252;2023-01-04T08:27:33;13.70;;;12.40;;
11338;SDS011;5724;42.684;23.252;2023-01-04T08:29:59;14.10;;;12.70;;
11338;SDS011;5724;42.684;23.252;2023-01-04T08:32:24;17.43;;;12.63;;
11338;SDS011;5724;42.684;23.252;2023-01-04T08:34:50;13.90;;;12.70;;
11338;SDS011;5724;42.684;23.252;2023-01-04T08:37:15;14.17;;;12.77;;
11338;SDS011;5724;42.684;23.252;2023-01-04T08:39:41;14.17;;;12.97;;
11338;SDS011;5724;42.684;23.252;2023-01-04T08:42:07;13.33;;;12.03;;
11338;SDS011;5724;42.684;23.252;2023-01-04T08:44:32;14.90;;;13.40;;
11338;SDS011;5724;42.684;23.252;2023-01-04T08:47:00;14.80;;;12.97;;
11338;SDS011;5724;42.684;23.252;2023-01-04T08:49:26;14.10;;;12.67;;
11338;SDS011;5724;42.684;23.252;2023-01-04T08:51:51;14.23;;;12.67;;
11338;SDS011;5724;42.684;23.252;2023-01-04T08:54:17;15.70;;;14.23;;
11338;SDS011;5724;42.684;23.252;2023-01-04T08:56:43;17.00;;;15.50;;
11338;SDS011;5724;42.684;23.252;2023-01-04T08:59:09;12.87;;;11.60;;
11338;SDS011;5724;42.684;23.252;2023-01-04T09:01:36;14.20;;;12.80;;
11338;SDS011;5724;42.684;23.252;2023-01-04T09:04:03;13.50;;;12.13;;
11338;SDS011;5724;42.684;23.252;2023-01-04T09:06:29;13.00;;;11.80;;
11338;SDS011;5724;42.684;23.252;2023-01-04T09:08:54;12.93;;;11.80;;
11338;SDS011;5724;42.684;23.252;2023-01-04T09:11:21;12.00;;;11.00;;
11338;SDS011;5724;42.684;23.252;2023-01-04T09:13:47;14.63;;;12.63;;
11338;SDS011;5724;42.684;23.252;2023-01-04T09:16:14;13.73;;;12.37;;
11338;SDS011;5724;42.684;23.252;2023-01-04T09:18:42;13.43;;;12.00;;
11338;SDS011;5724;42.684;23.252;2023-01-04T09:21:09;12.97;;;11.67;;
11338;SDS011;5724;42.684;23.252;2023-01-04T09:23:43;12.53;;;11.23;;
11338;SDS011;5724;42.684;23.252;2023-01-04T09:26:16;13.17;;;11.77;;
11338;SDS011;5724;42.684;23.252;2023-01-04T09:28:45;13.70;;;12.37;;
11338;SDS011;5724;42.684;23.252;2023-01-04T09:31:12;11.57;;;10.67;;
11338;SDS011;5724;42.684;23.252;2023-01-04T09:33:40;12.53;;;11.33;;
11338;SDS011;5724;42.684;23.252;2023-01-04T09:36:06;14.23;;;11.53;;
11338;SDS011;5724;42.684;23.252;2023-01-04T09:38:33;12.60;;;11.50;;
11338;SDS011;5724;42.684;23.252;2023-01-04T09:48:45;12.97;;;11.57;;
11338;SDS011;5724;42.684;23.252;2023-01-04T09:51:15;14.60;;;12.00;;
11338;SDS011;5724;42.684;23.252;2023-01-04T09:53:44;14.40;;;12.80;;
11338;SDS011;5724;42.684;23.252;2023-01-04T09:56:32;13.97;;;12.60;;
11338;SDS011;5724;42.684;23.252;2023-01-04T09:59:00;14.23;;;12.83;;
11338;SDS011;5724;42.684;23.252;2023-01-04T10:05:02;12.77;;;11.47;;
11338;SDS011;5724;42.684;23.252;2023-01-04T10:07:29;12.23;;;11.03;;
11338;SDS011;5724;42.684;23.252;2023-01-04T10:09:56;14.40;;;10.40;;
11338;SDS011;5724;42.684;23.252;2023-01-04T10:15:34;11.63;;;10.53;;
11338;SDS011;5724;42.684;23.252;2023-01-04T10:18:12;12.70;;;10.90;;
11338;SDS011;5724;42.684;23.252;2023-01-04T10:20:50;12.87;;;10.93;;
11338;SDS011;5724;42.684;23.252;2023-01-04T10:31:30;12.83;;;11.53;;
11338;SDS011;5724;42.684;23.252;2023-01-04T10:34:05;13.47;;;11.60;;
11338;SDS011;5724;42.684;23.252;2023-01-04T10:37:09;13.50;;;11.87;;
11338;SDS011;5724;42.684;23.252;2023-01-04T10:39:37;13.83;;;12.50;;
11338;SDS011;5724;42.684;23.252;2023-01-04T10:45:14;8.00;;;7.27;;
11338;SDS011;5724;42.684;23.252;2023-01-04T10:47:52;6.27;;;5.77;;
11338;SDS011;5724;42.684;23.252;2023-01-04T10:50:40;8.90;;;8.10;;
11338;SDS011;5724;42.684;23.252;2023-01-04T10:53:21;8.17;;;7.00;;
11338;SDS011;5724;42.684;23.252;2023-01-04T10:58:41;8.07;;;6.77;;
11338;SDS011;5724;42.684;23.252;2023-01-04T11:01:19;8.33;;;7.10;;
11338;SDS011;5724;42.684;23.252;2023-01-04T11:03:52;8.03;;;5.67;;
11338;SDS011;5724;42.684;23.252;2023-01-04T11:06:22;10.67;;;8.73;;
11338;SDS011;5724;42.684;23.252;2023-01-04T11:11:44;8.57;;;5.67;;
11338;SDS011;5724;42.684;23.252;2023-01-04T11:14:11;15.97;;;10.33;;
11338;SDS011;5724;42.684;23.252;2023-01-04T11:16:42;12.93;;;9.67;;
11338;SDS011;5724;42.684;23.252;2023-01-04T11:19:12;12.00;;;9.67;;
11338;SDS011;5724;42.684;23.252;2023-01-04T11:24:12;10.87;;;9.83;;
11338;SDS011;5724;42.684;23.252;2023-01-04T11:26:39;10.87;;;8.50;;
11338;SDS011;5724;42.684;23.252;2023-01-04T11:35:03;7.50;;;6.40;;
11338;SDS011;5724;42.684;23.252;2023-01-04T11:37:30;10.20;;;8.73;;
11338;SDS011;5724;42.684;23.252;2023-01-04T11:42:45;6.07;;;5.50;;
11338;SDS011;5724;42.684;23.252;2023-01-04T11:45:31;9.77;;;8.50;;
11338;SDS011;5724;42.684;23.252;2023-01-04T11:47:57;7.60;;;6.80;;
11338;SDS011;5724;42.684;23.252;2023-01-04T11:53:24;9.70;;;7.97;;
11338;SDS011;5724;42.684;23.252;2023-01-04T11:56:14;9.47;;;8.57;;
11338;SDS011;5724;42.684;23.252;2023-01-04T11:58:43;7.87;;;7.10;;
11338;SDS011;5724;42.684;23.252;2023-01-04T12:01:26;9.27;;;8.07;;
11338;SDS011;5724;42.684;23.252;2023-01-04T12:03:51;7.30;;;6.60;;
11338;SDS011;5724;42.684;23.252;2023-01-04T12:06:21;8.80;;;7.90;;
11338;SDS011;5724;42.684;23.252;2023-01-04T12:09:03;9.47;;;7.60;;
11338;SDS011;5724;42.684;23.252;2023-01-04T12:11:30;11.60;;;9.10;;
11338;SDS011;5724;42.684;23.252;2023-01-04T12:14:08;8.13;;;6.50;;
11338;SDS011;5724;42.684;23.252;2023-01-04T12:17:00;11.27;;;8.77;;
11338;SDS011;5724;42.684;23.252;2023-01-04T12:19:31;7.77;;;6.97;;
11338;SDS011;5724;42.684;23.252;2023-01-04T12:22:00;10.07;;;8.50;;
11338;SDS011;5724;42.684;23.252;2023-01-04T12:24:28;7.70;;;6.60;;
11338;SDS011;5724;42.684;23.252;2023-01-04T12:26:55;10.53;;;8.50;;
11338;SDS011;5724;42.684;23.252;2023-01-04T12:31:51;9.43;;;8.63;;
11338;SDS011;5724;42.684;23.252;2023-01-04T12:37:04;9.53;;;7.93;;
11338;SDS011;5724;42.684;23.252;2023-01-04T12:39:39;6.47;;;5.87;;
11338;SDS011;5724;42.684;23.252;2023-01-04T12:42:09;7.50;;;6.67;;
11338;SDS011;5724;42.684;23.252;2023-01-04T12:50:07;5.93;;;5.30;;
11338;SDS011;5724;42.684;23.252;2023-01-04T12:57:55;7.57;;;6.87;;
11338;SDS011;5724;42.684;23.252;2023-01-04T13:00:22;7.43;;;6.60;;
11338;SDS011;5724;42.684;23.252;2023-01-04T13:08:24;10.80;;;9.07;;
11338;SDS011;5724;42.684;23.252;2023-01-04T13:10:55;6.17;;;5.57;;
11338;SDS011;5724;42.684;23.252;2023-01-04T13:18:40;8.07;;;7.27;;
11338;SDS011;5724;42.684;23.252;2023-01-04T13:21:13;9.60;;;6.23;;
11338;SDS011;5724;42.684;23.252;2023-01-04T13:24:05;7.80;;;4.70;;
11338;SDS011;5724;42.684;23.252;2023-01-04T13:26:42;9.00;;;6.33;;
11338;SDS011;5724;42.684;23.252;2023-01-04T13:29:24;8.63;;;6.90;;
11338;SDS011;5724;42.684;23.252;2023-01-04T13:31:52;5.43;;;4.97;;
11338;SDS011;5724;42.684;23.252;2023-01-04T13:34:37;8.53;;;5.87;;
11338;SDS011;5724;42.684;23.252;2023-01-04T13:39:36;7.30;;;6.67;;
11338;SDS011;5724;42.684;23.252;2023-01-04T13:42:03;7.80;;;6.80;;
11338;SDS011;5724;42.684;23.252;2023-01-04T13:47:18;8.10;;;5.97;;
11338;SDS011;5724;42.684;23.252;2023-01-04T13:49:44;6.60;;;5.93;;
11338;SDS011;5724;42.684;23.252;2023-01-04T13:52:20;9.90;;;7.37;;
11338;SDS011;5724;42.684;23.252;2023-01-04T13:54:49;11.67;;;8.40;;
11338;SDS011;5724;42.684;23.252;2023-01-04T13:57:16;12.40;;;8.00;;
11338;SDS011;5724;42.684;23.252;2023-01-04T13:59:48;9.70;;;7.80;;
11338;SDS011;5724;42.684;23.252;2023-01-04T14:02:18;9.60;;;8.60;;
11338;SDS011;5724;42.684;23.252;2023-01-04T14:04:48;6.67;;;5.30;;
11338;SDS011;5724;42.684;23.252;2023-01-04T14:07:20;11.30;;;7.73;;
11338;SDS011;5724;42.684;23.252;2023-01-04T14:09:49;9.57;;;8.37;;
11338;SDS011;5724;42.684;23.252;2023-01-04T14:12:22;8.60;;;7.70;;
11338;SDS011;5724;42.684;23.252;2023-01-04T14:17:23;11.40;;;8.57;;
11338;SDS011;5724;42.684;23.252;2023-01-04T14:24:54;13.33;;;11.13;;
11338;SDS011;5724;42.684;23.252;2023-01-04T14:27:34;14.17;;;9.47;;
11338;SDS011;5724;42.684;23.252;2023-01-04T14:32:39;7.80;;;7.03;;
11338;SDS011;5724;42.684;23.252;2023-01-04T14:35:05;11.37;;;9.57;;
11338;SDS011;5724;42.684;23.252;2023-01-04T14:37:37;10.70;;;7.97;;
11338;SDS011;5724;42.684;23.252;2023-01-04T14:40:12;18.83;;;11.63;;
11338;SDS011;5724;42.684;23.252;2023-01-04T14:42:39;9.03;;;6.30;;
11338;SDS011;5724;42.684;23.252;2023-01-04T14:45:10;12.97;;;9.67;;
11338;SDS011;5724;42.684;23.252;2023-01-04T14:47:36;11.60;;;8.90;;
11338;SDS011;5724;42.684;23.252;2023-01-04T14:50:02;12.63;;;8.33;;
11338;SDS011;5724;42.684;23.252;2023-01-04T14:52:28;13.47;;;10.20;;
11338;SDS011;5724;42.684;23.252;2023-01-04T14:54:54;11.60;;;10.40;;
11338;SDS011;5724;42.684;23.252;2023-01-04T14:57:19;12.03;;;8.47;;
11338;SDS011;5724;42.684;23.252;2023-01-04T14:59:46;12.47;;;9.70;;
11338;SDS011;5724;42.684;23.252;2023-01-04T15:02:12;15.70;;;11.80;;
11338;SDS011;5724;42.684;23.252;2023-01-04T15:04:37;12.00;;;8.40;;
11338;SDS011;5724;42.684;23.252;2023-01-04T15:07:04;20.00;;;13.10;;
11338;SDS011;5724;42.684;23.252;2023-01-04T15:09:30;14.47;;;10.93;;
11338;SDS011;5724;42.684;23.252;2023-01-04T15:11:56;17.30;;;12.47;;
11338;SDS011;5724;42.684;23.252;2023-01-04T15:14:22;13.70;;;11.80;;
11338;SDS011;5724;42.684;23.252;2023-01-04T15:16:48;11.43;;;9.10;;
11338;SDS011;5724;42.684;23.252;2023-01-04T15:19:14;17.13;;;14.17;;
11338;SDS011;5724;42.684;23.252;2023-01-04T15:21:39;19.80;;;16.47;;
11338;SDS011;5724;42.684;23.252;2023-01-04T15:24:05;18.27;;;14.37;;
11338;SDS011;5724;42.684;23.252;2023-01-04T15:26:31;18.73;;;15.57;;
11338;SDS011;5724;42.684;23.252;2023-01-04T15:28:56;17.17;;;14.53;;
11338;SDS011;5724;42.684;23.252;2023-01-04T15:31:22;17.77;;;15.87;;
11338;SDS011;5724;42.684;23.252;2023-01-04T15:33:48;13.90;;;8.57;;
11338;SDS011;5724;42.684;23.252;2023-01-04T15:36:14;11.20;;;8.50;;
11338;SDS011;5724;42.684;23.252;2023-01-04T15:38:41;13.10;;;9.20;;
11338;SDS011;5724;42.684;23.252;2023-01-04T15:41:11;18.40;;;13.33;;
11338;SDS011;5724;42.684;23.252;2023-01-04T15:43:56;18.83;;;13.17;;
11338;SDS011;5724;42.684;23.252;2023-01-04T15:46:22;17.93;;;12.27;;
11338;SDS011;5724;42.684;23.252;2023-01-04T15:48:47;19.80;;;12.90;;
11338;SDS011;5724;42.684;23.252;2023-01-04T15:51:13;10.07;;;8.80;;
11338;SDS011;5724;42.684;23.252;2023-01-04T15:53:38;19.63;;;12.57;;
11338;SDS011;5724;42.684;23.252;2023-01-04T15:56:07;17.13;;;10.27;;
11338;SDS011;5724;42.684;23.252;2023-01-04T15:58:35;17.50;;;10.07;;
11338;SDS011;5724;42.684;23.252;2023-01-04T16:01:07;17.60;;;11.93;;
11338;SDS011;5724;42.684;23.252;2023-01-04T16:03:37;13.93;;;9.67;;
11338;SDS011;5724;42.684;23.252;2023-01-04T16:06:12;17.10;;;12.70;;
11338;SDS011;5724;42.684;23.252;2023-01-04T16:08:40;11.10;;;8.90;;
11338;SDS011;5724;42.684;23.252;2023-01-04T16:11:07;17.57;;;12.93;;
11338;SDS011;5724;42.684;23.252;2023-01-04T16:13:36;15.80;;;10.47;;
11338;SDS011;5724;42.684;23.252;2023-01-04T16:16:02;25.00;;;15.57;;
11338;SDS011;5724;42.684;23.252;2023-01-04T16:18:28;26.33;;;17.13;;
11338;SDS011;5724;42.684;23.252;2023-01-04T16:20:53;15.87;;;11.63;;
11338;SDS011;5724;42.684;23.252;2023-01-04T16:23:19;18.70;;;12.97;;
11338;SDS011;5724;42.684;23.252;2023-01-04T16:25:44;12.70;;;9.93;;
11338;SDS011;5724;42.684;23.252;2023-01-04T16:28:09;18.27;;;13.13;;
11338;SDS011;5724;42.684;23.252;2023-01-04T16:30:35;15.60;;;10.87;;
11338;SDS011;5724;42.684;23.252;2023-01-04T16:33:00;18.37;;;12.27;;
11338;SDS011;5724;42.684;23.252;2023-01-04T16:35:26;16.00;;;10.87;;
11338;SDS011;5724;42.684;23.252;2023-01-04T16:37:51;18.13;;;11.60;;
11338;SDS011;5724;42.684;23.252;2023-01-04T16:40:17;18.80;;;11.30;;
11338;SDS011;5724;42.684;23.252;2023-01-04T16:42:42;17.33;;;12.13;;
11338;SDS011;5724;42.684;23.252;2023-01-04T16:45:14;14.93;;;11.70;;
11338;SDS011;5724;42.684;23.252;2023-01-04T16:47:41;10.20;;;9.07;;
11338;SDS011;5724;42.684;23.252;2023-01-04T16:50:08;19.63;;;12.03;;
11338;SDS011;5724;42.684;23.252;2023-01-04T16:52:36;19.67;;;11.47;;
11338;SDS011;5724;42.684;23.252;2023-01-04T16:55:02;17.80;;;13.33;;
11338;SDS011;5724;42.684;23.252;2023-01-04T16:57:27;15.63;;;11.50;;
11338;SDS011;5724;42.684;23.252;2023-01-04T16:59:53;18.37;;;12.57;;
11338;SDS011;5724;42.684;23.252;2023-01-04T17:02:18;14.43;;;10.67;;